sensor_id;sensor_type;location;lat;lon;timestamp;P1;durP1;ratioP1;P2;durP2;ratioP2
10904;SDS011;5505;51.450;9.254;2023-04-01T00:02:37;3.70;;;1.47;;
10904;SDS011;5505;51.450;9.254;2023-04-01T00:05:25;4.10;;;1.30;;
10904;SDS011;5505;51.450;9.254;2023-04-01T00:08:12;6.10;;;1.87;;
10904;SDS011;5505;51.450;9.254;2023-04-01T00:10:58;2.60;;;0.90;;
10904;SDS011;5505;51.450;9.254;2023-04-01T00:13:45;5.93;;;2.07;;
10904;SDS011;5505;51.450;9.254;2023-04-01T00:16:32;3.07;;;1.00;;
10904;SDS011;5505;51.450;9.254;2023-04-01T00:19:20;2.30;;;1.10;;
10904;SDS011;5505;51.450;9.254;2023-04-01T00:22:08;1.70;;;0.60;;
10904;SDS011;5505;51.450;9.254;2023-04-01T00:24:56;10.80;;;5.80;;
10904;SDS011;5505;51.450;9.254;2023-04-01T00:27:43;1.70;;;0.90;;
10904;SDS011;5505;51.450;9.254;2023-04-01T00:30:30;2.03;;;0.80;;
10904;SDS011;5505;51.450;9.254;2023-04-01T00:33:17;1.80;;;0.60;;
10904;SDS011;5505;51.450;9.254;2023-04-01T00:36:05;1.10;;;0.60;;
10904;SDS011;5505;51.450;9.254;2023-04-01T00:38:54;2.77;;;0.70;;
10904;SDS011;5505;51.450;9.254;2023-04-01T00:41:41;1.53;;;0.47;;
10904;SDS011;5505;51.450;9.254;2023-04-01T00:44:29;1.83;;;0.60;;
10904;SDS011;5505;51.450;9.254;2023-04-01T00:47:17;1.53;;;0.80;;
10904;SDS011;5505;51.450;9.254;2023-04-01T00:50:05;2.63;;;0.90;;
10904;SDS011;5505;51.450;9.254;2023-04-01T00:52:52;2.73;;;0.63;;
10904;SDS011;5505;51.450;9.254;2023-04-01T00:55:41;1.70;;;0.53;;
10904;SDS011;5505;51.450;9.254;2023-04-01T00:58:34;2.63;;;0.73;;
10904;SDS011;5505;51.450;9.254;2023-04-01T01:01:24;2.73;;;0.77;;
10904;SDS011;5505;51.450;9.254;2023-04-01T01:04:20;3.00;;;0.70;;
10904;SDS011;5505;51.450;9.254;2023-04-01T01:07:12;2.50;;;0.83;;
10904;SDS011;5505;51.450;9.254;2023-04-01T01:10:05;1.83;;;0.60;;
10904;SDS011;5505;51.450;9.254;2023-04-01T01:13:03;1.47;;;0.57;;
10904;SDS011;5505;51.450;9.254;2023-04-01T01:15:57;2.10;;;0.60;;
10904;SDS011;5505;51.450;9.254;2023-04-01T01:18:47;1.57;;;0.50;;
10904;SDS011;5505;51.450;9.254;2023-04-01T01:21:45;0.87;;;0.40;;
10904;SDS011;5505;51.450;9.254;2023-04-01T01:27:56;1.33;;;0.40;;
10904;SDS011;5505;51.450;9.254;2023-04-01T01:30:52;1.57;;;0.50;;
10904;SDS011;5505;51.450;9.254;2023-04-01T01:33:48;2.17;;;0.37;;
10904;SDS011;5505;51.450;9.254;2023-04-01T01:36:44;0.63;;;0.33;;
10904;SDS011;5505;51.450;9.254;2023-04-01T01:39:34;2.10;;;0.50;;
10904;SDS011;5505;51.450;9.254;2023-04-01T01:42:22;3.87;;;0.50;;
10904;SDS011;5505;51.450;9.254;2023-04-01T01:45:11;1.13;;;0.40;;
10904;SDS011;5505;51.450;9.254;2023-04-01T01:48:02;1.43;;;0.60;;
10904;SDS011;5505;51.450;9.254;2023-04-01T01:50:51;1.67;;;0.47;;
10904;SDS011;5505;51.450;9.254;2023-04-01T01:53:40;2.03;;;0.50;;
10904;SDS011;5505;51.450;9.254;2023-04-01T01:56:27;1.07;;;0.50;;
10904;SDS011;5505;51.450;9.254;2023-04-01T01:59:15;2.80;;;0.80;;
10904;SDS011;5505;51.450;9.254;2023-04-01T02:02:06;1.17;;;0.43;;
10904;SDS011;5505;51.450;9.254;2023-04-01T02:04:55;0.27;;;0.23;;
10904;SDS011;5505;51.450;9.254;2023-04-01T02:07:43;1.70;;;0.40;;
10904;SDS011;5505;51.450;9.254;2023-04-01T02:10:36;1.33;;;0.50;;
10904;SDS011;5505;51.450;9.254;2023-04-01T02:13:27;0.83;;;0.43;;
10904;SDS011;5505;51.450;9.254;2023-04-01T02:16:18;2.30;;;0.60;;
10904;SDS011;5505;51.450;9.254;2023-04-01T02:19:09;0.70;;;0.40;;
10904;SDS011;5505;51.450;9.254;2023-04-01T02:21:59;2.87;;;0.60;;
10904;SDS011;5505;51.450;9.254;2023-04-01T02:24:49;1.07;;;0.43;;
10904;SDS011;5505;51.450;9.254;2023-04-01T02:27:39;1.33;;;0.40;;
10904;SDS011;5505;51.450;9.254;2023-04-01T02:30:27;2.80;;;0.50;;
10904;SDS011;5505;51.450;9.254;2023-04-01T02:33:18;1.07;;;0.40;;
10904;SDS011;5505;51.450;9.254;2023-04-01T02:36:09;1.60;;;0.40;;
10904;SDS011;5505;51.450;9.254;2023-04-01T02:38:58;2.17;;;0.40;;
10904;SDS011;5505;51.450;9.254;2023-04-01T02:41:47;2.37;;;0.63;;
10904;SDS011;5505;51.450;9.254;2023-04-01T02:44:35;0.93;;;0.40;;
10904;SDS011;5505;51.450;9.254;2023-04-01T02:47:22;1.30;;;0.40;;
10904;SDS011;5505;51.450;9.254;2023-04-01T02:50:09;1.03;;;0.30;;
10904;SDS011;5505;51.450;9.254;2023-04-01T02:52:56;1.43;;;0.33;;
10904;SDS011;5505;51.450;9.254;2023-04-01T02:55:43;2.47;;;0.47;;
10904;SDS011;5505;51.450;9.254;2023-04-01T02:58:30;3.40;;;0.60;;
10904;SDS011;5505;51.450;9.254;2023-04-01T03:01:18;1.13;;;0.50;;
10904;SDS011;5505;51.450;9.254;2023-04-01T03:04:05;0.63;;;0.30;;
10904;SDS011;5505;51.450;9.254;2023-04-01T03:06:51;0.77;;;0.37;;
10904;SDS011;5505;51.450;9.254;2023-04-01T03:09:38;1.43;;;0.53;;
10904;SDS011;5505;51.450;9.254;2023-04-01T03:12:25;0.83;;;0.50;;
10904;SDS011;5505;51.450;9.254;2023-04-01T03:15:12;1.23;;;0.60;;
10904;SDS011;5505;51.450;9.254;2023-04-01T03:18:01;0.43;;;0.20;;
10904;SDS011;5505;51.450;9.254;2023-04-01T03:20:49;1.23;;;0.40;;
10904;SDS011;5505;51.450;9.254;2023-04-01T03:23:35;1.53;;;0.50;;
10904;SDS011;5505;51.450;9.254;2023-04-01T03:26:22;1.80;;;0.40;;
10904;SDS011;5505;51.450;9.254;2023-04-01T03:29:09;1.13;;;0.30;;
10904;SDS011;5505;51.450;9.254;2023-04-01T03:31:56;0.47;;;0.27;;
10904;SDS011;5505;51.450;9.254;2023-04-01T03:34:45;2.03;;;0.60;;
10904;SDS011;5505;51.450;9.254;2023-04-01T03:37:32;1.90;;;0.40;;
10904;SDS011;5505;51.450;9.254;2023-04-01T03:40:18;2.57;;;0.80;;
10904;SDS011;5505;51.450;9.254;2023-04-01T03:43:05;0.93;;;0.43;;
10904;SDS011;5505;51.450;9.254;2023-04-01T03:45:53;2.37;;;0.60;;
10904;SDS011;5505;51.450;9.254;2023-04-01T03:48:42;0.67;;;0.40;;
10904;SDS011;5505;51.450;9.254;2023-04-01T03:51:30;1.33;;;0.50;;
10904;SDS011;5505;51.450;9.254;2023-04-01T03:54:17;1.53;;;0.40;;
10904;SDS011;5505;51.450;9.254;2023-04-01T03:57:05;1.70;;;0.83;;
10904;SDS011;5505;51.450;9.254;2023-04-01T03:59:52;1.93;;;0.40;;
10904;SDS011;5505;51.450;9.254;2023-04-01T04:02:38;1.07;;;0.27;;
10904;SDS011;5505;51.450;9.254;2023-04-01T04:05:25;1.20;;;0.33;;
10904;SDS011;5505;51.450;9.254;2023-04-01T04:08:14;0.87;;;0.40;;
10904;SDS011;5505;51.450;9.254;2023-04-01T04:11:01;0.37;;;0.20;;
10904;SDS011;5505;51.450;9.254;2023-04-01T04:13:47;1.03;;;0.30;;
10904;SDS011;5505;51.450;9.254;2023-04-01T04:16:35;0.73;;;0.30;;
10904;SDS011;5505;51.450;9.254;2023-04-01T04:19:22;0.77;;;0.37;;
10904;SDS011;5505;51.450;9.254;2023-04-01T04:22:09;0.43;;;0.33;;
10904;SDS011;5505;51.450;9.254;2023-04-01T04:24:57;0.60;;;0.20;;
10904;SDS011;5505;51.450;9.254;2023-04-01T04:27:44;1.90;;;0.50;;
10904;SDS011;5505;51.450;9.254;2023-04-01T04:30:31;1.10;;;0.43;;
10904;SDS011;5505;51.450;9.254;2023-04-01T04:33:17;1.23;;;0.30;;
10904;SDS011;5505;51.450;9.254;2023-04-01T04:36:05;1.37;;;0.43;;
10904;SDS011;5505;51.450;9.254;2023-04-01T04:38:52;0.83;;;0.30;;
10904;SDS011;5505;51.450;9.254;2023-04-01T04:41:40;1.50;;;0.23;;
10904;SDS011;5505;51.450;9.254;2023-04-01T04:44:27;0.70;;;0.40;;
10904;SDS011;5505;51.450;9.254;2023-04-01T04:47:14;3.53;;;0.60;;
10904;SDS011;5505;51.450;9.254;2023-04-01T04:50:01;2.03;;;0.60;;
10904;SDS011;5505;51.450;9.254;2023-04-01T04:52:47;2.50;;;0.50;;
10904;SDS011;5505;51.450;9.254;2023-04-01T04:55:34;0.53;;;0.20;;
10904;SDS011;5505;51.450;9.254;2023-04-01T04:58:22;1.37;;;0.30;;
10904;SDS011;5505;51.450;9.254;2023-04-01T05:01:09;1.83;;;0.53;;
10904;SDS011;5505;51.450;9.254;2023-04-01T05:03:58;1.63;;;0.50;;
10904;SDS011;5505;51.450;9.254;2023-04-01T05:06:45;1.37;;;0.40;;
10904;SDS011;5505;51.450;9.254;2023-04-01T05:09:31;1.50;;;0.33;;
10904;SDS011;5505;51.450;9.254;2023-04-01T05:12:18;1.43;;;0.40;;
10904;SDS011;5505;51.450;9.254;2023-04-01T05:15:07;1.07;;;0.40;;
10904;SDS011;5505;51.450;9.254;2023-04-01T05:17:54;0.17;;;0.17;;
10904;SDS011;5505;51.450;9.254;2023-04-01T05:20:45;1.27;;;0.20;;
10904;SDS011;5505;51.450;9.254;2023-04-01T05:23:33;2.50;;;0.50;;
10904;SDS011;5505;51.450;9.254;2023-04-01T05:26:20;1.50;;;0.30;;
10904;SDS011;5505;51.450;9.254;2023-04-01T05:29:06;0.50;;;0.30;;
10904;SDS011;5505;51.450;9.254;2023-04-01T05:31:54;0.93;;;0.30;;
10904;SDS011;5505;51.450;9.254;2023-04-01T05:34:41;0.97;;;0.30;;
10904;SDS011;5505;51.450;9.254;2023-04-01T05:37:28;0.20;;;0.20;;
10904;SDS011;5505;51.450;9.254;2023-04-01T05:40:16;0.50;;;0.10;;
10904;SDS011;5505;51.450;9.254;2023-04-01T05:43:03;0.70;;;0.20;;
10904;SDS011;5505;51.450;9.254;2023-04-01T05:45:49;1.00;;;0.30;;
10904;SDS011;5505;51.450;9.254;2023-04-01T05:48:38;2.70;;;0.50;;
10904;SDS011;5505;51.450;9.254;2023-04-01T05:51:25;1.47;;;0.33;;
10904;SDS011;5505;51.450;9.254;2023-04-01T05:54:11;0.67;;;0.20;;
10904;SDS011;5505;51.450;9.254;2023-04-01T05:56:58;0.50;;;0.30;;
10904;SDS011;5505;51.450;9.254;2023-04-01T05:59:45;3.00;;;0.43;;
10904;SDS011;5505;51.450;9.254;2023-04-01T06:02:32;1.50;;;0.30;;
10904;SDS011;5505;51.450;9.254;2023-04-01T06:05:21;1.47;;;0.30;;
10904;SDS011;5505;51.450;9.254;2023-04-01T06:08:10;1.13;;;0.30;;
10904;SDS011;5505;51.450;9.254;2023-04-01T06:11:01;0.80;;;0.20;;
10904;SDS011;5505;51.450;9.254;2023-04-01T06:14:10;0.63;;;0.20;;
10904;SDS011;5505;51.450;9.254;2023-04-01T06:17:07;0.77;;;0.40;;
10904;SDS011;5505;51.450;9.254;2023-04-01T06:20:08;1.43;;;0.30;;
10904;SDS011;5505;51.450;9.254;2023-04-01T06:23:06;1.87;;;0.77;;
10904;SDS011;5505;51.450;9.254;2023-04-01T06:26:05;3.53;;;1.63;;
10904;SDS011;5505;51.450;9.254;2023-04-01T06:29:08;6.50;;;4.50;;
10904;SDS011;5505;51.450;9.254;2023-04-01T06:35:38;1.40;;;0.77;;
10904;SDS011;5505;51.450;9.254;2023-04-01T06:38:49;1.77;;;1.37;;
10904;SDS011;5505;51.450;9.254;2023-04-01T06:42:06;2.23;;;0.63;;
10904;SDS011;5505;51.450;9.254;2023-04-01T06:45:08;0.93;;;0.40;;
10904;SDS011;5505;51.450;9.254;2023-04-01T06:51:19;0.53;;;0.50;;
10904;SDS011;5505;51.450;9.254;2023-04-01T06:54:17;3.80;;;0.50;;
10904;SDS011;5505;51.450;9.254;2023-04-01T06:57:13;1.33;;;0.40;;
10904;SDS011;5505;51.450;9.254;2023-04-01T07:00:11;1.50;;;0.30;;
10904;SDS011;5505;51.450;9.254;2023-04-01T07:03:03;2.03;;;0.93;;
10904;SDS011;5505;51.450;9.254;2023-04-01T07:05:56;2.47;;;0.60;;
10904;SDS011;5505;51.450;9.254;2023-04-01T07:08:47;1.03;;;0.30;;
10904;SDS011;5505;51.450;9.254;2023-04-01T07:11:38;1.23;;;0.33;;
10904;SDS011;5505;51.450;9.254;2023-04-01T07:14:27;0.90;;;0.40;;
10904;SDS011;5505;51.450;9.254;2023-04-01T07:17:19;1.33;;;0.30;;
10904;SDS011;5505;51.450;9.254;2023-04-01T07:20:11;1.63;;;0.40;;
10904;SDS011;5505;51.450;9.254;2023-04-01T07:23:06;0.77;;;0.30;;
10904;SDS011;5505;51.450;9.254;2023-04-01T07:26:04;1.23;;;0.57;;
10904;SDS011;5505;51.450;9.254;2023-04-01T07:29:00;0.93;;;0.63;;
10904;SDS011;5505;51.450;9.254;2023-04-01T07:31:54;2.93;;;1.00;;
10904;SDS011;5505;51.450;9.254;2023-04-01T07:35:09;2.90;;;0.60;;
10904;SDS011;5505;51.450;9.254;2023-04-01T07:38:12;0.80;;;0.40;;
10904;SDS011;5505;51.450;9.254;2023-04-01T07:41:09;1.57;;;1.10;;
10904;SDS011;5505;51.450;9.254;2023-04-01T07:44:09;0.60;;;0.40;;
10904;SDS011;5505;51.450;9.254;2023-04-01T07:47:05;12.70;;;8.03;;
10904;SDS011;5505;51.450;9.254;2023-04-01T07:50:05;1.03;;;0.40;;
10904;SDS011;5505;51.450;9.254;2023-04-01T07:53:03;0.83;;;0.20;;
10904;SDS011;5505;51.450;9.254;2023-04-01T07:55:58;1.23;;;0.63;;
10904;SDS011;5505;51.450;9.254;2023-04-01T07:58:53;1.47;;;0.97;;
10904;SDS011;5505;51.450;9.254;2023-04-01T08:01:50;2.00;;;0.70;;
10904;SDS011;5505;51.450;9.254;2023-04-01T08:04:46;0.60;;;0.20;;
10904;SDS011;5505;51.450;9.254;2023-04-01T08:07:40;1.27;;;0.70;;
10904;SDS011;5505;51.450;9.254;2023-04-01T08:10:36;0.43;;;0.30;;
10904;SDS011;5505;51.450;9.254;2023-04-01T08:13:33;1.17;;;0.50;;
10904;SDS011;5505;51.450;9.254;2023-04-01T08:16:26;1.07;;;0.77;;
10904;SDS011;5505;51.450;9.254;2023-04-01T08:19:25;0.50;;;0.50;;
10904;SDS011;5505;51.450;9.254;2023-04-01T08:22:21;0.37;;;0.27;;
10904;SDS011;5505;51.450;9.254;2023-04-01T08:25:13;0.50;;;0.40;;
10904;SDS011;5505;51.450;9.254;2023-04-01T08:28:09;2.03;;;1.33;;
10904;SDS011;5505;51.450;9.254;2023-04-01T08:31:03;1.67;;;1.00;;
10904;SDS011;5505;51.450;9.254;2023-04-01T08:33:53;4.30;;;2.30;;
10904;SDS011;5505;51.450;9.254;2023-04-01T08:36:43;0.20;;;0.10;;
10904;SDS011;5505;51.450;9.254;2023-04-01T08:39:34;0.97;;;0.20;;
10904;SDS011;5505;51.450;9.254;2023-04-01T08:42:31;0.57;;;0.30;;
10904;SDS011;5505;51.450;9.254;2023-04-01T08:45:40;1.13;;;0.10;;
10904;SDS011;5505;51.450;9.254;2023-04-01T08:52:03;1.70;;;0.40;;
10904;SDS011;5505;51.450;9.254;2023-04-01T08:58:30;0.30;;;0.20;;
10904;SDS011;5505;51.450;9.254;2023-04-01T09:01:47;0.70;;;0.30;;
10904;SDS011;5505;51.450;9.254;2023-04-01T09:05:14;0.73;;;0.23;;
10904;SDS011;5505;51.450;9.254;2023-04-01T09:08:33;1.00;;;0.30;;
10904;SDS011;5505;51.450;9.254;2023-04-01T09:11:32;0.70;;;0.27;;
10904;SDS011;5505;51.450;9.254;2023-04-01T09:14:38;1.50;;;0.70;;
10904;SDS011;5505;51.450;9.254;2023-04-01T09:21:36;0.97;;;0.50;;
10904;SDS011;5505;51.450;9.254;2023-04-01T09:24:36;1.23;;;0.30;;
10904;SDS011;5505;51.450;9.254;2023-04-01T09:27:33;0.27;;;0.10;;
10904;SDS011;5505;51.450;9.254;2023-04-01T09:30:32;0.10;;;0.10;;
10904;SDS011;5505;51.450;9.254;2023-04-01T09:33:34;1.40;;;0.60;;
10904;SDS011;5505;51.450;9.254;2023-04-01T09:36:55;1.07;;;0.30;;
10904;SDS011;5505;51.450;9.254;2023-04-01T09:40:16;0.30;;;0.30;;
10904;SDS011;5505;51.450;9.254;2023-04-01T09:43:25;0.57;;;0.10;;
10904;SDS011;5505;51.450;9.254;2023-04-01T09:46:15;0.83;;;0.60;;
10904;SDS011;5505;51.450;9.254;2023-04-01T09:49:26;1.13;;;0.57;;
10904;SDS011;5505;51.450;9.254;2023-04-01T09:52:41;0.90;;;0.50;;
10904;SDS011;5505;51.450;9.254;2023-04-01T09:59:14;1.17;;;0.30;;
10904;SDS011;5505;51.450;9.254;2023-04-01T10:02:33;1.90;;;1.03;;
10904;SDS011;5505;51.450;9.254;2023-04-01T10:09:24;0.80;;;0.57;;
10904;SDS011;5505;51.450;9.254;2023-04-01T10:22:55;0.60;;;0.47;;
10904;SDS011;5505;51.450;9.254;2023-04-01T10:26:29;1.43;;;1.03;;
10904;SDS011;5505;51.450;9.254;2023-04-01T10:29:38;0.97;;;0.60;;
10904;SDS011;5505;51.450;9.254;2023-04-01T10:33:11;0.53;;;0.30;;
10904;SDS011;5505;51.450;9.254;2023-04-01T10:36:28;0.83;;;0.60;;
10904;SDS011;5505;51.450;9.254;2023-04-01T10:43:00;0.90;;;0.43;;
10904;SDS011;5505;51.450;9.254;2023-04-01T10:46:22;0.63;;;0.37;;
10904;SDS011;5505;51.450;9.254;2023-04-01T10:49:44;2.33;;;0.60;;
10904;SDS011;5505;51.450;9.254;2023-04-01T10:53:03;0.60;;;0.30;;
10904;SDS011;5505;51.450;9.254;2023-04-01T10:56:29;1.20;;;0.60;;
10904;SDS011;5505;51.450;9.254;2023-04-01T10:59:32;0.50;;;0.20;;
10904;SDS011;5505;51.450;9.254;2023-04-01T11:06:37;0.70;;;0.57;;
10904;SDS011;5505;51.450;9.254;2023-04-01T11:16:47;0.47;;;0.40;;
10904;SDS011;5505;51.450;9.254;2023-04-01T11:20:13;1.30;;;1.07;;
10904;SDS011;5505;51.450;9.254;2023-04-01T11:23:24;1.03;;;1.00;;
10904;SDS011;5505;51.450;9.254;2023-04-01T11:26:26;0.90;;;0.63;;
10904;SDS011;5505;51.450;9.254;2023-04-01T11:29:29;2.53;;;1.30;;
10904;SDS011;5505;51.450;9.254;2023-04-01T11:32:37;1.63;;;0.73;;
10904;SDS011;5505;51.450;9.254;2023-04-01T11:35:35;0.93;;;0.60;;
10904;SDS011;5505;51.450;9.254;2023-04-01T11:38:55;0.90;;;0.37;;
10904;SDS011;5505;51.450;9.254;2023-04-01T11:41:56;0.63;;;0.47;;
10904;SDS011;5505;51.450;9.254;2023-04-01T11:44:51;0.90;;;0.30;;
10904;SDS011;5505;51.450;9.254;2023-04-01T11:47:48;0.77;;;0.50;;
10904;SDS011;5505;51.450;9.254;2023-04-01T11:50:49;0.50;;;0.50;;
10904;SDS011;5505;51.450;9.254;2023-04-01T11:53:47;0.47;;;0.30;;
10904;SDS011;5505;51.450;9.254;2023-04-01T11:56:51;0.30;;;0.20;;
10904;SDS011;5505;51.450;9.254;2023-04-01T11:59:52;0.93;;;0.20;;
10904;SDS011;5505;51.450;9.254;2023-04-01T12:02:50;0.20;;;0.20;;
10904;SDS011;5505;51.450;9.254;2023-04-01T12:05:49;1.30;;;0.10;;
10904;SDS011;5505;51.450;9.254;2023-04-01T12:08:42;1.43;;;0.60;;
10904;SDS011;5505;51.450;9.254;2023-04-01T12:11:41;0.30;;;0.30;;
10904;SDS011;5505;51.450;9.254;2023-04-01T12:14:36;0.33;;;0.30;;
10904;SDS011;5505;51.450;9.254;2023-04-01T12:17:33;0.67;;;0.20;;
10904;SDS011;5505;51.450;9.254;2023-04-01T12:20:30;0.20;;;0.10;;
10904;SDS011;5505;51.450;9.254;2023-04-01T12:23:35;0.67;;;0.13;;
10904;SDS011;5505;51.450;9.254;2023-04-01T12:26:46;0.17;;;0.17;;
10904;SDS011;5505;51.450;9.254;2023-04-01T12:33:32;0.30;;;0.20;;
10904;SDS011;5505;51.450;9.254;2023-04-01T12:36:47;0.30;;;0.30;;
10904;SDS011;5505;51.450;9.254;2023-04-01T12:42:54;0.40;;;0.20;;
10904;SDS011;5505;51.450;9.254;2023-04-01T12:45:49;0.87;;;0.20;;
10904;SDS011;5505;51.450;9.254;2023-04-01T12:48:50;0.57;;;0.20;;
10904;SDS011;5505;51.450;9.254;2023-04-01T12:52:01;0.83;;;0.53;;
10904;SDS011;5505;51.450;9.254;2023-04-01T12:54:59;0.43;;;0.43;;
10904;SDS011;5505;51.450;9.254;2023-04-01T12:58:22;0.27;;;0.20;;
10904;SDS011;5505;51.450;9.254;2023-04-01T13:01:42;0.40;;;0.30;;
10904;SDS011;5505;51.450;9.254;2023-04-01T13:05:01;0.20;;;0.20;;
10904;SDS011;5505;51.450;9.254;2023-04-01T13:08:22;0.43;;;0.40;;
10904;SDS011;5505;51.450;9.254;2023-04-01T13:11:20;0.50;;;0.40;;
10904;SDS011;5505;51.450;9.254;2023-04-01T13:14:20;0.40;;;0.37;;
10904;SDS011;5505;51.450;9.254;2023-04-01T13:17:19;0.87;;;0.40;;
10904;SDS011;5505;51.450;9.254;2023-04-01T13:20:13;0.77;;;0.20;;
10904;SDS011;5505;51.450;9.254;2023-04-01T13:23:07;0.23;;;0.20;;
10904;SDS011;5505;51.450;9.254;2023-04-01T13:26:05;1.70;;;0.50;;
10904;SDS011;5505;51.450;9.254;2023-04-01T13:28:59;0.57;;;0.30;;
10904;SDS011;5505;51.450;9.254;2023-04-01T13:31:54;0.50;;;0.30;;
10904;SDS011;5505;51.450;9.254;2023-04-01T13:34:55;0.57;;;0.40;;
10904;SDS011;5505;51.450;9.254;2023-04-01T13:38:00;1.30;;;0.40;;
10904;SDS011;5505;51.450;9.254;2023-04-01T13:41:06;0.67;;;0.57;;
10904;SDS011;5505;51.450;9.254;2023-04-01T13:44:00;1.20;;;0.97;;
10904;SDS011;5505;51.450;9.254;2023-04-01T13:50:17;0.60;;;0.43;;
10904;SDS011;5505;51.450;9.254;2023-04-01T13:53:30;0.60;;;0.60;;
10904;SDS011;5505;51.450;9.254;2023-04-01T13:56:32;1.40;;;1.17;;
10904;SDS011;5505;51.450;9.254;2023-04-01T13:59:35;0.97;;;0.90;;
10904;SDS011;5505;51.450;9.254;2023-04-01T14:02:42;0.50;;;0.50;;
10904;SDS011;5505;51.450;9.254;2023-04-01T14:05:42;0.30;;;0.30;;
10904;SDS011;5505;51.450;9.254;2023-04-01T14:08:42;0.63;;;0.20;;
10904;SDS011;5505;51.450;9.254;2023-04-01T14:11:44;0.60;;;0.50;;
10904;SDS011;5505;51.450;9.254;2023-04-01T14:14:46;0.77;;;0.70;;
10904;SDS011;5505;51.450;9.254;2023-04-01T14:17:47;0.43;;;0.43;;
10904;SDS011;5505;51.450;9.254;2023-04-01T14:20:45;1.87;;;1.30;;
10904;SDS011;5505;51.450;9.254;2023-04-01T14:23:47;2.10;;;1.40;;
10904;SDS011;5505;51.450;9.254;2023-04-01T14:30:35;0.50;;;0.40;;
10904;SDS011;5505;51.450;9.254;2023-04-01T14:33:33;0.73;;;0.50;;
10904;SDS011;5505;51.450;9.254;2023-04-01T14:36:32;0.90;;;0.90;;
10904;SDS011;5505;51.450;9.254;2023-04-01T14:39:43;1.07;;;0.70;;
10904;SDS011;5505;51.450;9.254;2023-04-01T14:43:01;1.23;;;0.80;;
10904;SDS011;5505;51.450;9.254;2023-04-01T14:46:07;1.10;;;0.97;;
10904;SDS011;5505;51.450;9.254;2023-04-01T14:49:15;0.50;;;0.30;;
10904;SDS011;5505;51.450;9.254;2023-04-01T14:52:09;0.30;;;0.30;;
10904;SDS011;5505;51.450;9.254;2023-04-01T14:55:01;0.47;;;0.47;;
10904;SDS011;5505;51.450;9.254;2023-04-01T14:58:08;0.77;;;0.47;;
10904;SDS011;5505;51.450;9.254;2023-04-01T15:00:59;0.93;;;0.50;;
10904;SDS011;5505;51.450;9.254;2023-04-01T15:03:57;0.77;;;0.30;;
10904;SDS011;5505;51.450;9.254;2023-04-01T15:07:04;0.23;;;0.23;;
10904;SDS011;5505;51.450;9.254;2023-04-01T15:10:17;6.00;;;4.10;;
10904;SDS011;5505;51.450;9.254;2023-04-01T15:13:19;3.87;;;2.10;;
10904;SDS011;5505;51.450;9.254;2023-04-01T15:16:21;1.37;;;1.27;;
10904;SDS011;5505;51.450;9.254;2023-04-01T15:19:15;2.53;;;1.30;;
10904;SDS011;5505;51.450;9.254;2023-04-01T15:25:31;1.20;;;0.93;;
10904;SDS011;5505;51.450;9.254;2023-04-01T15:28:31;0.77;;;0.70;;
10904;SDS011;5505;51.450;9.254;2023-04-01T15:31:25;1.00;;;0.90;;
10904;SDS011;5505;51.450;9.254;2023-04-01T15:34:25;0.90;;;0.90;;
10904;SDS011;5505;51.450;9.254;2023-04-01T15:37:19;2.00;;;1.00;;
10904;SDS011;5505;51.450;9.254;2023-04-01T15:40:17;1.20;;;1.07;;
10904;SDS011;5505;51.450;9.254;2023-04-01T15:43:15;1.33;;;1.07;;
10904;SDS011;5505;51.450;9.254;2023-04-01T15:46:22;1.63;;;1.10;;
10904;SDS011;5505;51.450;9.254;2023-04-01T15:49:22;2.30;;;1.53;;
10904;SDS011;5505;51.450;9.254;2023-04-01T15:52:21;3.70;;;2.60;;
10904;SDS011;5505;51.450;9.254;2023-04-01T15:55:17;2.20;;;2.00;;
10904;SDS011;5505;51.450;9.254;2023-04-01T15:58:20;2.60;;;2.00;;
10904;SDS011;5505;51.450;9.254;2023-04-01T16:01:26;1.37;;;1.27;;
10904;SDS011;5505;51.450;9.254;2023-04-01T16:07:41;0.10;;;0.10;;
10904;SDS011;5505;51.450;9.254;2023-04-01T16:10:41;0.43;;;0.30;;
10904;SDS011;5505;51.450;9.254;2023-04-01T16:13:42;2.03;;;0.60;;
10904;SDS011;5505;51.450;9.254;2023-04-01T16:16:47;1.20;;;0.47;;
10904;SDS011;5505;51.450;9.254;2023-04-01T16:19:51;0.43;;;0.30;;
10904;SDS011;5505;51.450;9.254;2023-04-01T16:22:39;0.27;;;0.17;;
10904;SDS011;5505;51.450;9.254;2023-04-01T16:25:32;0.67;;;0.20;;
10904;SDS011;5505;51.450;9.254;2023-04-01T16:28:27;0.30;;;0.20;;
10904;SDS011;5505;51.450;9.254;2023-04-01T16:31:25;0.03;;;0.03;;
10904;SDS011;5505;51.450;9.254;2023-04-01T16:34:19;0.20;;;0.10;;
10904;SDS011;5505;51.450;9.254;2023-04-01T16:37:12;0.10;;;0.07;;
10904;SDS011;5505;51.450;9.254;2023-04-01T16:40:09;0.17;;;0.10;;
10904;SDS011;5505;51.450;9.254;2023-04-01T16:43:06;0.00;;;0.00;;
10904;SDS011;5505;51.450;9.254;2023-04-01T16:46:14;1.10;;;0.10;;
10904;SDS011;5505;51.450;9.254;2023-04-01T16:49:17;1.37;;;0.20;;
10904;SDS011;5505;51.450;9.254;2023-04-01T16:52:13;0.83;;;0.30;;
10904;SDS011;5505;51.450;9.254;2023-04-01T16:55:02;0.57;;;0.27;;
10904;SDS011;5505;51.450;9.254;2023-04-01T16:57:58;0.47;;;0.30;;
10904;SDS011;5505;51.450;9.254;2023-04-01T17:00:48;1.07;;;0.30;;
10904;SDS011;5505;51.450;9.254;2023-04-01T17:03:38;0.77;;;0.20;;
10904;SDS011;5505;51.450;9.254;2023-04-01T17:06:30;0.20;;;0.10;;
10904;SDS011;5505;51.450;9.254;2023-04-01T17:09:29;0.10;;;0.10;;
10904;SDS011;5505;51.450;9.254;2023-04-01T17:12:27;0.20;;;0.20;;
10904;SDS011;5505;51.450;9.254;2023-04-01T17:15:20;0.60;;;0.30;;
10904;SDS011;5505;51.450;9.254;2023-04-01T17:18:18;0.70;;;0.20;;
10904;SDS011;5505;51.450;9.254;2023-04-01T17:21:14;1.70;;;0.23;;
10904;SDS011;5505;51.450;9.254;2023-04-01T17:24:06;0.50;;;0.20;;
10904;SDS011;5505;51.450;9.254;2023-04-01T17:27:12;0.23;;;0.23;;
10904;SDS011;5505;51.450;9.254;2023-04-01T17:30:14;0.20;;;0.20;;
10904;SDS011;5505;51.450;9.254;2023-04-01T17:33:19;0.30;;;0.30;;
10904;SDS011;5505;51.450;9.254;2023-04-01T17:36:33;0.20;;;0.20;;
10904;SDS011;5505;51.450;9.254;2023-04-01T17:39:29;0.30;;;0.30;;
10904;SDS011;5505;51.450;9.254;2023-04-01T17:42:30;1.07;;;0.20;;
10904;SDS011;5505;51.450;9.254;2023-04-01T17:45:27;0.80;;;0.40;;
10904;SDS011;5505;51.450;9.254;2023-04-01T17:48:21;1.60;;;0.47;;
10904;SDS011;5505;51.450;9.254;2023-04-01T17:51:23;1.33;;;0.33;;
10904;SDS011;5505;51.450;9.254;2023-04-01T17:54:20;0.70;;;0.30;;
10904;SDS011;5505;51.450;9.254;2023-04-01T18:00:26;0.30;;;0.30;;
10904;SDS011;5505;51.450;9.254;2023-04-01T18:03:22;0.57;;;0.20;;
10904;SDS011;5505;51.450;9.254;2023-04-01T18:06:34;4.33;;;3.37;;
10904;SDS011;5505;51.450;9.254;2023-04-01T18:09:26;8.90;;;6.27;;
10904;SDS011;5505;51.450;9.254;2023-04-01T18:12:29;2.80;;;2.40;;
10904;SDS011;5505;51.450;9.254;2023-04-01T18:15:28;8.03;;;5.90;;
10904;SDS011;5505;51.450;9.254;2023-04-01T18:18:32;11.40;;;8.63;;
10904;SDS011;5505;51.450;9.254;2023-04-01T18:21:31;4.77;;;3.50;;
10904;SDS011;5505;51.450;9.254;2023-04-01T18:24:30;3.23;;;2.57;;
10904;SDS011;5505;51.450;9.254;2023-04-01T18:27:23;1.93;;;1.63;;
10904;SDS011;5505;51.450;9.254;2023-04-01T18:30:15;2.33;;;2.13;;
10904;SDS011;5505;51.450;9.254;2023-04-01T18:33:08;3.93;;;3.57;;
10904;SDS011;5505;51.450;9.254;2023-04-01T18:36:07;6.17;;;5.43;;
10904;SDS011;5505;51.450;9.254;2023-04-01T18:39:00;6.60;;;6.00;;
10904;SDS011;5505;51.450;9.254;2023-04-01T18:41:56;3.87;;;3.57;;
10904;SDS011;5505;51.450;9.254;2023-04-01T18:44:50;4.00;;;3.70;;
10904;SDS011;5505;51.450;9.254;2023-04-01T18:47:41;5.00;;;4.60;;
10904;SDS011;5505;51.450;9.254;2023-04-01T18:50:33;4.27;;;3.97;;
10904;SDS011;5505;51.450;9.254;2023-04-01T18:53:25;4.77;;;4.37;;
10904;SDS011;5505;51.450;9.254;2023-04-01T18:56:22;4.63;;;4.23;;
10904;SDS011;5505;51.450;9.254;2023-04-01T18:59:16;5.20;;;4.80;;
10904;SDS011;5505;51.450;9.254;2023-04-01T19:02:16;5.23;;;4.60;;
10904;SDS011;5505;51.450;9.254;2023-04-01T19:05:14;5.13;;;4.70;;
10904;SDS011;5505;51.450;9.254;2023-04-01T19:08:18;5.97;;;5.47;;
10904;SDS011;5505;51.450;9.254;2023-04-01T19:11:12;4.77;;;4.37;;
10904;SDS011;5505;51.450;9.254;2023-04-01T19:14:08;4.53;;;3.80;;
10904;SDS011;5505;51.450;9.254;2023-04-01T19:17:04;3.70;;;3.40;;